createdAt,value
2022-12-01T00:00:18.038Z,1.04
2022-12-01T00:01:18.192Z,1.04
2022-12-01T00:02:18.413Z,1.04
2022-12-01T00:03:18.683Z,1.04
2022-12-01T00:04:18.657Z,1.04
2022-12-01T00:05:18.795Z,1.04
2022-12-01T00:06:18.945Z,1.04
2022-12-01T00:07:19.195Z,1.04
2022-12-01T00:08:19.243Z,1.04
2022-12-01T00:09:20.093Z,1.04
2022-12-01T00:10:19.513Z,1.04
2022-12-01T00:11:19.619Z,1.04
2022-12-01T00:12:19.766Z,1.04
2022-12-01T00:13:19.870Z,1.04
2022-12-01T00:14:19.969Z,1.04
2022-12-01T00:15:20.118Z,1.04
2022-12-01T00:16:20.272Z,1.04
2022-12-01T00:17:20.406Z,1.04
2022-12-01T00:18:20.568Z,1.04
2022-12-01T00:19:20.681Z,1.04
2022-12-01T00:20:20.828Z,1.04
2022-12-01T00:21:21.000Z,1.04
2022-12-01T00:22:21.148Z,1.04
2022-12-01T00:23:21.281Z,1.04
2022-12-01T00:24:21.424Z,1.04
2022-12-01T00:25:21.589Z,1.04
2022-12-01T00:26:21.735Z,1.04
2022-12-01T00:27:21.830Z,1.04
2022-12-01T00:28:22.010Z,1.04
2022-12-01T00:29:22.242Z,1.04
2022-12-01T00:30:22.333Z,1.04
2022-12-01T00:31:22.512Z,1.04
2022-12-01T00:32:22.586Z,1.04
2022-12-01T00:33:22.740Z,1.04
2022-12-01T00:34:22.894Z,1.04
2022-12-01T00:35:23.045Z,1.04
2022-12-01T00:36:23.212Z,1.04
2022-12-01T00:37:23.342Z,1.04
2022-12-01T00:38:23.499Z,1.04
2022-12-01T00:39:23.657Z,1.04
2022-12-01T00:40:23.803Z,1.04
2022-12-01T00:41:23.981Z,1.04
2022-12-01T00:42:24.064Z,1.04
2022-12-01T00:43:24.209Z,1.04
2022-12-01T00:44:24.320Z,1.04
2022-12-01T00:45:24.461Z,1.04
2022-12-01T00:46:24.688Z,1.04
2022-12-01T00:47:24.804Z,1.04
2022-12-01T00:48:24.984Z,1.04
2022-12-01T00:49:25.221Z,1.04
2022-12-01T00:50:25.375Z,1.04
2022-12-01T00:51:25.543Z,1.04
2022-12-01T00:52:25.661Z,1.04
2022-12-01T00:53:25.825Z,1.04
2022-12-01T00:54:25.929Z,1.04
2022-12-01T00:55:26.073Z,1.04
2022-12-01T00:56:26.227Z,1.04
2022-12-01T00:57:26.374Z,1.04
2022-12-01T00:58:26.530Z,1.04
2022-12-01T00:59:26.677Z,1.04
2022-12-01T01:00:26.835Z,1.04
2022-12-01T01:01:27.065Z,1.04
2022-12-01T01:02:27.171Z,1.04
2022-12-01T01:03:27.199Z,1.04
2022-12-01T01:04:27.338Z,1.04
2022-12-01T01:05:27.441Z,1.04
2022-12-01T01:06:27.586Z,1.04
2022-12-01T01:07:27.809Z,1.04
2022-12-01T01:08:27.897Z,1.04
2022-12-01T01:09:27.999Z,1.04
2022-12-01T01:10:28.148Z,1.04
2022-12-01T01:11:28.257Z,1.04
2022-12-01T01:12:28.391Z,1.04
2022-12-01T01:13:28.552Z,1.04
2022-12-01T01:14:28.705Z,1.04
2022-12-01T01:15:28.811Z,1.04
2022-12-01T01:16:28.989Z,1.04
2022-12-01T01:17:29.095Z,1.04
2022-12-01T01:18:29.258Z,1.04
2022-12-01T01:19:29.412Z,1.04
2022-12-01T01:20:29.508Z,1.04
2022-12-01T01:21:29.656Z,1.04
2022-12-01T01:22:29.810Z,1.04
2022-12-01T01:23:29.962Z,1.04
2022-12-01T01:24:30.065Z,1.04
2022-12-01T01:25:30.230Z,1.04
2022-12-01T01:26:30.381Z,1.04
2022-12-01T01:27:30.526Z,1.04
2022-12-01T01:28:30.621Z,1.04
2022-12-01T01:29:30.716Z,1.04
2022-12-01T01:30:30.926Z,1.04
2022-12-01T01:31:31.022Z,1.04
2022-12-01T01:32:31.184Z,1.04
2022-12-01T01:33:31.331Z,1.04
2022-12-01T01:34:31.476Z,1.04
2022-12-01T01:35:31.639Z,1.04
2022-12-01T01:36:31.811Z,1.04
2022-12-01T01:37:31.919Z,1.04
2022-12-01T01:38:32.033Z,1.04
2022-12-01T01:39:32.192Z,1.04
2022-12-01T01:40:32.337Z,1.04
2022-12-01T01:41:32.482Z,1.04
2022-12-01T01:42:33.219Z,1.04
2022-12-01T01:43:32.748Z,1.04
2022-12-01T01:44:32.889Z,1.04
2022-12-01T01:45:33.045Z,1.04
2022-12-01T01:46:33.265Z,1.04
2022-12-01T01:47:33.288Z,1.04
2022-12-01T01:48:33.443Z,1.04
2022-12-01T01:49:33.617Z,1.04
2022-12-01T01:50:33.752Z,1.04
2022-12-01T01:51:33.912Z,1.04
2022-12-01T01:52:34.052Z,1.04
2022-12-01T01:53:34.225Z,1.04
2022-12-01T01:54:34.357Z,1.04
2022-12-01T01:55:34.507Z,1.04
2022-12-01T01:56:34.657Z,1.04
2022-12-01T01:57:34.796Z,1.04
2022-12-01T01:58:34.862Z,1.04
2022-12-01T01:59:34.970Z,1.04
2022-12-01T02:00:35.119Z,1.04
2022-12-01T02:01:35.327Z,1.04
2022-12-01T02:02:35.457Z,1.04
2022-12-01T02:03:35.578Z,1.04
2022-12-01T02:04:35.722Z,1.04
2022-12-01T02:05:35.869Z,1.04
2022-12-01T02:06:35.970Z,1.04
2022-12-01T02:07:36.184Z,1.04
2022-12-01T02:08:36.242Z,1.04
2022-12-01T02:09:36.357Z,1.04
2022-12-01T02:10:36.522Z,1.04
2022-12-01T02:11:36.632Z,1.04
2022-12-01T02:12:36.777Z,1.04
2022-12-01T02:13:36.880Z,1.04
2022-12-01T02:14:37.050Z,1.04
2022-12-01T02:15:37.176Z,1.04
2022-12-01T02:16:37.326Z,1.04
2022-12-01T02:17:41.492Z,1.04
2022-12-01T02:18:37.547Z,1.04
2022-12-01T02:19:37.652Z,1.04
2022-12-01T02:20:37.792Z,1.04
2022-12-01T02:21:37.906Z,1.04
2022-12-01T02:22:38.037Z,1.04
2022-12-01T02:23:38.199Z,1.04
2022-12-01T02:24:38.346Z,1.04
2022-12-01T02:25:38.509Z,1.04
2022-12-01T02:26:38.662Z,1.04
2022-12-01T02:27:38.758Z,1.04
2022-12-01T02:28:38.913Z,1.04
2022-12-01T02:29:39.060Z,1.04
2022-12-01T02:30:39.260Z,1.04
2022-12-01T02:31:39.354Z,1.04
2022-12-01T02:32:39.475Z,1.04
2022-12-01T02:33:39.611Z,1.04
2022-12-01T02:34:39.771Z,1.04
2022-12-01T02:35:39.871Z,1.04
2022-12-01T02:36:39.980Z,1.04
2022-12-01T02:37:40.121Z,1.04
2022-12-01T02:38:40.279Z,1.04
2022-12-01T02:39:40.426Z,1.04
2022-12-01T02:40:40.570Z,1.04
2022-12-01T02:41:40.689Z,1.04
2022-12-01T02:42:40.823Z,1.04
2022-12-01T02:43:40.990Z,1.04
2022-12-01T02:44:41.135Z,1.04
2022-12-01T02:45:41.291Z,1.04
2022-12-01T02:46:41.389Z,1.04
2022-12-01T02:47:41.540Z,1.04
2022-12-01T02:48:41.689Z,1.04
2022-12-01T02:49:41.831Z,1.04
2022-12-01T02:50:42.000Z,1.04
2022-12-01T02:51:42.150Z,1.04
2022-12-01T02:52:42.245Z,1.04
2022-12-01T02:53:42.400Z,1.04
2022-12-01T02:54:42.543Z,1.04
2022-12-01T02:55:42.694Z,1.04
2022-12-01T02:56:42.856Z,1.04
2022-12-01T02:57:42.996Z,1.04
2022-12-01T02:58:43.150Z,1.04
2022-12-01T02:59:43.262Z,1.04
2022-12-01T03:00:43.394Z,1.04
2022-12-01T03:01:43.600Z,1.04
2022-12-01T03:02:43.891Z,1.04
2022-12-01T03:03:43.862Z,1.04
2022-12-01T03:04:44.011Z,1.04
2022-12-01T03:05:44.160Z,1.04
2022-12-01T03:06:44.312Z,1.04
2022-12-01T03:07:44.545Z,1.04
2022-12-01T03:08:44.636Z,1.04
2022-12-01T03:09:44.778Z,1.04
2022-12-01T03:10:44.926Z,1.04
2022-12-01T03:11:45.022Z,1.04
2022-12-01T03:12:45.171Z,1.04
2022-12-01T03:13:45.326Z,1.04
2022-12-01T03:14:45.472Z,1.04
2022-12-01T03:15:45.626Z,1.04
2022-12-01T03:16:45.724Z,1.04
2022-12-01T03:17:45.872Z,1.04
2022-12-01T03:18:45.986Z,1.04
2022-12-01T03:19:46.568Z,1.04
2022-12-01T03:20:46.283Z,1.04
2022-12-01T03:21:46.438Z,1.04
2022-12-01T03:22:46.586Z,1.04
2022-12-01T03:23:46.740Z,1.04
2022-12-01T03:24:46.901Z,1.04
2022-12-01T03:25:47.048Z,1.04
2022-12-01T03:26:47.190Z,1.04
2022-12-01T03:28:13.763Z,1.04
2022-12-01T03:28:47.445Z,1.04
2022-12-01T03:29:47.992Z,1.04
2022-12-01T03:30:47.952Z,1.04
2022-12-01T03:31:47.883Z,1.04
2022-12-01T03:32:47.943Z,1.04
2022-12-01T03:33:48.120Z,1.04
2022-12-01T03:34:48.266Z,1.04
2022-12-01T03:35:48.373Z,1.04
2022-12-01T03:36:48.543Z,1.04
2022-12-01T03:37:48.662Z,1.04
2022-12-01T03:38:48.805Z,1.04
2022-12-01T03:39:49.224Z,1.04
2022-12-01T03:40:49.106Z,1.04
2022-12-01T03:41:49.286Z,1.04
2022-12-01T03:42:49.420Z,1.04
2022-12-01T03:43:49.564Z,1.04
2022-12-01T03:44:49.717Z,1.04
2022-12-01T03:45:49.867Z,1.04
2022-12-01T03:46:49.967Z,1.04
2022-12-01T03:47:50.111Z,1.04
2022-12-01T03:48:50.239Z,1.04
2022-12-01T03:49:50.592Z,1.04
2022-12-01T03:50:50.528Z,1.04
2022-12-01T03:51:50.684Z,1.04
2022-12-01T03:52:50.831Z,1.04
2022-12-01T03:53:51.001Z,1.04
2022-12-01T03:54:51.133Z,1.04
2022-12-01T03:55:51.234Z,1.04
2022-12-01T03:56:51.387Z,1.04
2022-12-01T03:57:51.525Z,1.04
2022-12-01T03:58:51.626Z,1.04
2022-12-01T03:59:51.912Z,1.04
2022-12-01T04:00:51.929Z,1.04
2022-12-01T04:01:52.152Z,1.04
2022-12-01T04:02:52.271Z,1.04
2022-12-01T04:03:52.396Z,1.04
2022-12-01T04:04:52.555Z,1.04
2022-12-01T04:05:52.700Z,1.04
2022-12-01T04:06:52.841Z,1.04
2022-12-01T04:07:53.156Z,1.04
2022-12-01T04:08:53.158Z,1.04
2022-12-01T04:09:53.341Z,1.04
2022-12-01T04:10:53.451Z,1.04
2022-12-01T04:11:53.611Z,1.04
2022-12-01T04:12:53.762Z,1.04
2022-12-01T04:13:53.906Z,1.04
2022-12-01T04:14:54.064Z,1.04
2022-12-01T04:15:54.277Z,1.04
2022-12-01T04:16:54.317Z,1.04
2022-12-01T04:17:54.472Z,1.04
2022-12-01T04:18:54.614Z,1.04
2022-12-01T04:19:54.767Z,1.04
2022-12-01T04:20:54.919Z,1.04
2022-12-01T04:21:55.083Z,1.04
2022-12-01T04:22:55.179Z,1.04
2022-12-01T04:23:55.328Z,1.04
2022-12-01T04:24:55.478Z,1.04
2022-12-01T04:25:55.583Z,1.04
2022-12-01T04:26:55.729Z,1.04
2022-12-01T04:27:55.869Z,1.04
2022-12-01T04:28:56.035Z,1.04
2022-12-01T04:29:56.178Z,1.04
2022-12-01T04:30:56.365Z,1.04
2022-12-01T04:31:56.388Z,1.04
2022-12-01T04:32:56.490Z,1.04
2022-12-01T04:33:56.649Z,1.04
2022-12-01T04:34:56.792Z,1.04
2022-12-01T04:35:56.943Z,1.04
2022-12-01T04:36:57.049Z,1.04
2022-12-01T04:37:57.188Z,1.04
2022-12-01T04:38:57.345Z,1.04
2022-12-01T04:39:57.491Z,1.04
2022-12-01T04:40:57.652Z,1.04
2022-12-01T04:41:57.804Z,1.04
2022-12-01T04:42:57.958Z,1.04
2022-12-01T04:43:58.101Z,1.04
2022-12-01T04:44:58.257Z,1.04
2022-12-01T04:45:58.391Z,1.04
2022-12-01T04:46:58.552Z,1.04
2022-12-01T04:47:58.661Z,1.04
2022-12-01T04:48:58.810Z,1.04
2022-12-01T04:49:58.969Z,1.04
2022-12-01T04:50:59.108Z,1.04
2022-12-01T04:51:59.265Z,1.04
2022-12-01T04:52:59.410Z,1.04
2022-12-01T04:53:59.582Z,1.04
2022-12-01T04:54:59.713Z,1.04
2022-12-01T04:55:59.873Z,1.04
2022-12-01T04:57:00.016Z,1.04
2022-12-01T04:58:00.174Z,1.04
2022-12-01T04:59:00.288Z,1.04
2022-12-01T05:00:00.439Z,1.04
2022-12-01T05:01:00.672Z,1.04
2022-12-01T05:02:00.782Z,1.04
2022-12-01T05:03:00.897Z,1.04
2022-12-01T05:04:01.035Z,1.04
2022-12-01T05:05:01.148Z,1.04
2022-12-01T05:06:01.292Z,1.04
2022-12-01T05:07:01.437Z,1.04
2022-12-01T05:08:01.648Z,1.04
2022-12-01T05:09:01.745Z,1.04
2022-12-01T05:10:01.893Z,1.04
2022-12-01T05:11:02.043Z,1.04
2022-12-01T05:12:02.189Z,1.04
2022-12-01T05:13:02.349Z,1.04
2022-12-01T05:14:02.502Z,1.04
2022-12-01T05:15:02.651Z,1.04
2022-12-01T05:16:02.775Z,1.04
2022-12-01T05:17:02.912Z,1.04
2022-12-01T05:18:03.019Z,1.04
2022-12-01T05:19:03.160Z,1.04
2022-12-01T05:20:03.314Z,1.04
2022-12-01T05:21:03.461Z,1.04
2022-12-01T05:22:03.717Z,1.04
2022-12-01T05:23:05.557Z,1.04
2022-12-01T05:24:03.951Z,1.04
2022-12-01T05:25:04.119Z,1.04
2022-12-01T05:26:04.209Z,1.04
2022-12-01T05:27:04.365Z,1.04
2022-12-01T05:28:04.525Z,1.04
2022-12-01T05:29:04.669Z,1.04
2022-12-01T05:30:04.834Z,1.04
2022-12-01T05:31:05.034Z,1.04
2022-12-01T05:32:05.195Z,1.04
2022-12-01T05:33:05.237Z,1.04
2022-12-01T05:34:05.404Z,1.04
2022-12-01T05:35:05.534Z,1.04
2022-12-01T05:36:05.637Z,1.04
2022-12-01T05:37:05.784Z,1.04
2022-12-01T05:38:07.927Z,1.04
2022-12-01T05:39:06.048Z,1.04
2022-12-01T05:40:06.150Z,1.04
2022-12-01T05:41:06.252Z,1.04
2022-12-01T05:42:06.392Z,1.04
2022-12-01T05:43:06.523Z,1.04
2022-12-01T05:44:06.647Z,1.04
2022-12-01T05:45:07.319Z,1.04
2022-12-01T05:46:06.985Z,1.04
2022-12-01T05:47:07.083Z,1.04
2022-12-01T05:48:07.872Z,1.04
2022-12-01T05:49:07.344Z,1.04
2022-12-01T05:50:07.485Z,1.04
2022-12-01T05:51:07.625Z,1.04
2022-12-01T05:52:07.706Z,1.04
2022-12-01T05:53:07.856Z,1.04
2022-12-01T05:54:08.006Z,1.04
2022-12-01T05:55:08.200Z,1.04
2022-12-01T05:56:08.325Z,1.04
2022-12-01T05:57:08.416Z,1.04
2022-12-01T05:58:08.564Z,1.04
2022-12-01T05:59:08.718Z,1.04
2022-12-01T06:00:08.853Z,1.04
2022-12-01T06:01:08.964Z,1.04
2022-12-01T06:02:09.148Z,1.04
2022-12-01T06:03:09.219Z,1.04
2022-12-01T06:04:09.381Z,1.04
2022-12-01T06:05:09.476Z,1.04
2022-12-01T06:06:09.590Z,1.04
2022-12-01T06:07:09.720Z,1.04
2022-12-01T06:08:09.890Z,1.04
2022-12-01T06:09:10.035Z,1.04
2022-12-01T06:10:10.145Z,1.04
2022-12-01T06:11:10.284Z,2
2022-12-01T06:12:10.383Z,2
2022-12-01T06:13:10.542Z,2
2022-12-01T06:14:10.695Z,2
2022-12-01T06:15:10.852Z,3.04
2022-12-01T06:16:10.985Z,3.04
2022-12-01T06:17:11.137Z,3.04
2022-12-01T06:18:11.292Z,3.04
2022-12-01T06:19:11.443Z,4
2022-12-01T06:20:11.599Z,5.04
2022-12-01T06:21:11.757Z,5.04
2022-12-01T06:22:11.904Z,6
2022-12-01T06:23:12.049Z,7.04
2022-12-01T06:24:12.204Z,9.04
2022-12-01T06:25:12.356Z,10
2022-12-01T06:26:12.508Z,12
2022-12-01T06:27:12.663Z,14
2022-12-01T06:28:12.807Z,16
2022-12-01T06:29:12.962Z,19.04
2022-12-01T06:30:13.070Z,22
2022-12-01T06:31:13.205Z,25.04
2022-12-01T06:32:13.323Z,27.04
2022-12-01T06:33:13.465Z,30
2022-12-01T06:34:13.618Z,34
2022-12-01T06:35:13.769Z,36
2022-12-01T06:36:13.918Z,40
2022-12-01T06:37:14.079Z,42
2022-12-01T06:38:14.239Z,45.04
2022-12-01T06:39:14.376Z,49.04
2022-12-01T06:40:14.547Z,54
2022-12-01T06:41:14.679Z,63.04
2022-12-01T06:42:14.833Z,69.04
2022-12-01T06:43:14.990Z,73.04
2022-12-01T06:44:15.130Z,82
2022-12-01T06:45:15.280Z,90
2022-12-01T06:46:15.451Z,99.04
2022-12-01T06:47:15.533Z,110
2022-12-01T06:48:15.693Z,119.04
2022-12-01T06:49:15.788Z,126
2022-12-01T06:50:15.938Z,131.04
2022-12-01T06:51:16.102Z,137.04
2022-12-01T06:52:16.247Z,157.04
2022-12-01T06:53:16.396Z,173.12
2022-12-01T06:54:16.540Z,178.08
2022-12-01T06:55:16.650Z,181.12
2022-12-01T06:56:16.810Z,184
2022-12-01T06:57:16.980Z,195.04
2022-12-01T06:58:17.109Z,210.08
2022-12-01T06:59:17.205Z,224
2022-12-01T07:00:17.350Z,243.04
2022-12-01T07:01:17.533Z,266.08
2022-12-01T07:02:17.625Z,285.12
2022-12-01T07:03:17.766Z,308
2022-12-01T07:04:17.920Z,338.24
2022-12-01T07:05:18.010Z,355.2
2022-12-01T07:06:18.188Z,393.28
2022-12-01T07:07:18.317Z,429.12
2022-12-01T07:08:18.521Z,455.04
2022-12-01T07:09:18.574Z,488
2022-12-01T07:10:18.719Z,524.16
2022-12-01T07:11:18.865Z,553.28
2022-12-01T07:12:19.022Z,576
2022-12-01T07:13:19.113Z,610.24
2022-12-01T07:14:19.272Z,640
2022-12-01T07:15:19.435Z,670.08
2022-12-01T07:16:19.629Z,685.44
2022-12-01T07:17:19.681Z,693.12
2022-12-01T07:18:19.835Z,689.28
2022-12-01T07:19:19.993Z,723.2
2022-12-01T07:20:20.143Z,782.08
2022-12-01T07:21:20.291Z,858.24
2022-12-01T07:22:20.450Z,875.52
2022-12-01T07:23:20.595Z,973.44
2022-12-01T07:24:20.749Z,1040
2022-12-01T07:25:20.890Z,1090.56
2022-12-01T07:26:21.062Z,1109.12
2022-12-01T07:27:21.188Z,1136
2022-12-01T07:28:21.346Z,1173.12
2022-12-01T07:29:21.505Z,1171.2
2022-12-01T07:30:25.465Z,1174.4
2022-12-01T07:31:21.801Z,1180.16
2022-12-01T07:32:21.913Z,1233.28
2022-12-01T07:33:22.057Z,1254.4
2022-12-01T07:34:22.212Z,1256.32
2022-12-01T07:35:22.351Z,1265.28
2022-12-01T07:36:22.514Z,1272.32
2022-12-01T07:37:22.666Z,1294.08
2022-12-01T07:38:22.818Z,1463.04
2022-12-01T07:39:22.956Z,1511.68
2022-12-01T07:40:23.113Z,1530.88
2022-12-01T07:41:23.258Z,1495.04
2022-12-01T07:42:23.357Z,1440
2022-12-01T07:43:23.472Z,1428.48
2022-12-01T07:44:23.628Z,1484.8
2022-12-01T07:45:23.770Z,1556.48
2022-12-01T07:46:24.296Z,1643.52
2022-12-01T07:47:24.025Z,1671.68
2022-12-01T07:48:24.185Z,1623.04
2022-12-01T07:49:24.329Z,1584.64
2022-12-01T07:50:24.431Z,1557.76
2022-12-01T07:51:24.589Z,1588.48
2022-12-01T07:52:24.737Z,1619.2
2022-12-01T07:53:24.882Z,1701.12
2022-12-01T07:54:25.034Z,1852.16
2022-12-01T07:55:25.187Z,1945.6
2022-12-01T07:56:25.359Z,1981.44
2022-12-01T07:57:25.484Z,2050.56
2022-12-01T07:58:25.659Z,2112
2022-12-01T07:59:25.803Z,2209.28
2022-12-01T08:00:25.987Z,2291.2
2022-12-01T08:01:26.119Z,2293.76
2022-12-01T08:02:26.190Z,2334.72
2022-12-01T08:03:26.631Z,2338.56
2022-12-01T08:04:26.436Z,2370.56
2022-12-01T08:05:26.534Z,2356.48
2022-12-01T08:06:26.710Z,2291.2
2022-12-01T08:07:29.779Z,2176
2022-12-01T08:08:27.015Z,2247.68
2022-12-01T08:09:27.159Z,2338.56
2022-12-01T08:10:27.321Z,2373.12
2022-12-01T08:11:27.464Z,2444.8
2022-12-01T08:12:27.620Z,2496
2022-12-01T08:13:27.722Z,2432
2022-12-01T08:14:27.867Z,2378.24
2022-12-01T08:15:28.070Z,2364.16
2022-12-01T08:16:28.155Z,2480.64
2022-12-01T08:17:28.254Z,2629.12
2022-12-01T08:18:28.376Z,2808.32
2022-12-01T08:19:28.528Z,2941.44
2022-12-01T08:20:28.688Z,3264
2022-12-01T08:21:28.726Z,3397.12
2022-12-01T08:22:28.870Z,3420.16
2022-12-01T08:23:29.035Z,3427.84
2022-12-01T08:24:29.179Z,3507.2
2022-12-01T08:25:29.331Z,3663.36
2022-12-01T08:26:29.482Z,3796.48
2022-12-01T08:27:29.629Z,4116.48
2022-12-01T08:28:29.784Z,4390.4
2022-12-01T08:29:29.941Z,4802.56
2022-12-01T08:30:30.164Z,5086.72
2022-12-01T08:31:30.303Z,5248
2022-12-01T08:32:30.332Z,5447.68
2022-12-01T08:33:30.513Z,5775.36
2022-12-01T08:34:30.627Z,6563.84
2022-12-01T08:35:30.805Z,7362.56
2022-12-01T08:36:30.953Z,8632.319
2022-12-01T08:37:31.060Z,9241.6
2022-12-01T08:38:31.196Z,9610.24
2022-12-01T08:39:31.352Z,9646.08
2022-12-01T08:40:31.503Z,9876.479
2022-12-01T08:41:31.652Z,10470.399
2022-12-01T08:42:31.816Z,10629.12
2022-12-01T08:43:56.383Z,10680.319
2022-12-01T08:44:32.154Z,10752
2022-12-01T08:45:32.252Z,10823.68
2022-12-01T08:46:32.441Z,10803.2
2022-12-01T08:47:32.470Z,10557.439
2022-12-01T08:48:32.616Z,10327.04
2022-12-01T08:49:32.784Z,10460.16
2022-12-01T08:50:32.921Z,9989.12
2022-12-01T08:51:33.076Z,9415.68
2022-12-01T08:52:33.175Z,9313.28
2022-12-01T08:53:33.322Z,9246.72
2022-12-01T08:54:33.423Z,8801.28
2022-12-01T08:55:33.569Z,8366.08
2022-12-01T08:56:33.723Z,7848.96
2022-12-01T08:57:33.903Z,7669.76
2022-12-01T08:58:34.053Z,7357.44
2022-12-01T08:59:34.180Z,7029.76
2022-12-01T09:00:34.322Z,6830.08
2022-12-01T09:01:34.564Z,6743.04
2022-12-01T09:02:34.763Z,6650.88
2022-12-01T09:03:34.735Z,6686.72
2022-12-01T09:04:34.882Z,6727.68
2022-12-01T09:05:34.990Z,6456.32
2022-12-01T09:06:35.140Z,6231.04
2022-12-01T09:07:35.323Z,5980.16
2022-12-01T09:08:35.448Z,5836.8
2022-12-01T09:09:35.594Z,5862.4
2022-12-01T09:10:35.756Z,6215.68
2022-12-01T09:11:35.902Z,6579.2
2022-12-01T09:12:36.249Z,7121.92
2022-12-01T09:13:36.403Z,7336.96
2022-12-01T09:14:36.568Z,7475.2
2022-12-01T09:15:36.704Z,7434.24
2022-12-01T09:16:36.850Z,7249.92
2022-12-01T09:17:36.994Z,7173.12
2022-12-01T09:18:37.139Z,7316.48
2022-12-01T09:19:37.271Z,7311.36
2022-12-01T09:20:37.417Z,7567.36
2022-12-01T09:21:38.176Z,8058.88
2022-12-01T09:22:37.704Z,8463.359
2022-12-01T09:23:38.387Z,8401.92
2022-12-01T09:24:38.332Z,8468.479
2022-12-01T09:25:38.162Z,8980.479
2022-12-01T09:26:38.290Z,9011.2
2022-12-01T09:27:38.417Z,8801.28
2022-12-01T09:28:38.571Z,8750.08
2022-12-01T09:29:38.716Z,8519.68
2022-12-01T09:30:38.873Z,8294.4
2022-12-01T09:31:38.995Z,8161.28
2022-12-01T09:32:39.122Z,8289.28
2022-12-01T09:33:39.223Z,8094.72
2022-12-01T09:34:39.366Z,7690.24
2022-12-01T09:35:39.677Z,7296
2022-12-01T09:36:39.839Z,7193.6
2022-12-01T09:37:39.989Z,7203.84
2022-12-01T09:38:40.139Z,7311.36
2022-12-01T09:39:40.232Z,7367.68
2022-12-01T09:40:40.333Z,7296
2022-12-01T09:41:40.486Z,7280.64
2022-12-01T09:42:40.597Z,7285.76
2022-12-01T09:43:40.737Z,7086.08
2022-12-01T09:44:40.894Z,6768.64
2022-12-01T09:45:41.043Z,6430.72
2022-12-01T09:46:41.267Z,6266.88
2022-12-01T09:47:41.287Z,6184.96
2022-12-01T09:48:41.381Z,5836.8
2022-12-01T09:49:41.481Z,5432.32
2022-12-01T09:50:41.696Z,4861.44
2022-12-01T09:51:41.822Z,4643.84
2022-12-01T09:52:41.960Z,4456.96
2022-12-01T09:53:42.126Z,4367.36
2022-12-01T09:54:42.251Z,4375.04
2022-12-01T09:55:42.415Z,4308.48
2022-12-01T09:56:42.561Z,4241.92
2022-12-01T09:57:42.717Z,4203.52
2022-12-01T09:58:42.866Z,4116.48
2022-12-01T09:59:42.967Z,4070.4
2022-12-01T10:00:43.165Z,4193.28
2022-12-01T10:01:43.258Z,4341.76
2022-12-01T10:02:43.366Z,4510.72
2022-12-01T10:03:43.523Z,4741.12
2022-12-01T10:04:43.669Z,4828.16
2022-12-01T10:06:03.282Z,4940.8
2022-12-01T10:06:43.988Z,5160.96
2022-12-01T10:07:44.184Z,5570.56
2022-12-01T10:08:44.285Z,5990.4
2022-12-01T10:09:44.389Z,6384.64
2022-12-01T10:10:44.571Z,6876.16
2022-12-01T10:11:44.746Z,7316.48
2022-12-01T10:12:44.828Z,7639.04
2022-12-01T10:13:44.890Z,7925.76
2022-12-01T10:14:45.045Z,8207.36
2022-12-01T10:15:45.169Z,8273.92
2022-12-01T10:16:45.341Z,8294.4
2022-12-01T10:17:45.499Z,8709.12
2022-12-01T10:18:45.656Z,9640.96
2022-12-01T10:19:45.790Z,8970.24
2022-12-01T10:20:45.953Z,9041.92
2022-12-01T10:21:46.045Z,9687.04
2022-12-01T10:22:46.405Z,10506.24
2022-12-01T10:23:46.550Z,11499.52
2022-12-01T10:24:46.706Z,15656.96
2022-12-01T10:25:46.860Z,12922.88
2022-12-01T10:26:47.007Z,12759.04
2022-12-01T10:27:47.194Z,12103.68
2022-12-01T10:28:47.263Z,11223.04
2022-12-01T10:29:48.268Z,9815.04
2022-12-01T10:30:47.501Z,9185.28
2022-12-01T10:31:47.724Z,8668.16
2022-12-01T10:32:47.835Z,8560.64
2022-12-01T10:33:47.972Z,8944.64
2022-12-01T10:34:48.131Z,9123.84
2022-12-01T10:35:48.266Z,9072.64
2022-12-01T10:36:48.414Z,8760.319
2022-12-01T10:37:48.660Z,8576
2022-12-01T10:38:48.724Z,8729.6
2022-12-01T10:39:49.247Z,9036.8
2022-12-01T10:40:49.021Z,9543.68
2022-12-01T10:41:49.177Z,9789.439
2022-12-01T10:42:49.327Z,9789.439
2022-12-01T10:43:49.467Z,9630.72
2022-12-01T10:44:49.645Z,9287.68
2022-12-01T10:45:49.842Z,9149.439
2022-12-01T10:46:49.946Z,9026.56
2022-12-01T10:47:51.798Z,8965.12
2022-12-01T10:48:50.142Z,9052.16
2022-12-01T10:49:50.592Z,8929.28
2022-12-01T10:50:50.402Z,8514.56
2022-12-01T10:51:50.554Z,8473.6
2022-12-01T10:52:50.698Z,8509.439
2022-12-01T10:53:50.842Z,8299.52
2022-12-01T10:54:50.978Z,8151.04
2022-12-01T10:55:51.096Z,8350.72
2022-12-01T10:56:51.257Z,8596.479
2022-12-01T10:57:51.404Z,8186.88
2022-12-01T10:58:51.552Z,8074.24
2022-12-01T10:59:52.004Z,8473.6
2022-12-01T11:00:59.421Z,8965.12
2022-12-01T11:01:52.048Z,8929.28
2022-12-01T11:02:52.192Z,8688.64
2022-12-01T11:03:52.293Z,8499.2
2022-12-01T11:04:52.411Z,8304.64
2022-12-01T11:05:52.582Z,8483.84
2022-12-01T11:06:52.709Z,8171.52
2022-12-01T11:07:52.923Z,7664.64
2022-12-01T11:08:53.027Z,7828.48
2022-12-01T11:09:53.176Z,8099.84
2022-12-01T11:10:53.312Z,8381.44
2022-12-01T11:11:53.427Z,8422.399
2022-12-01T11:12:53.567Z,8519.68
2022-12-01T11:13:53.721Z,8883.2
2022-12-01T11:14:53.880Z,9031.68
2022-12-01T11:15:54.020Z,9021.439
2022-12-01T11:16:54.253Z,9287.68
2022-12-01T11:17:54.323Z,9651.2
2022-12-01T11:18:54.532Z,10163.2
2022-12-01T11:19:54.700Z,10147.84
2022-12-01T11:20:54.832Z,10260.479
2022-12-01T11:21:54.993Z,10373.12
2022-12-01T11:22:55.084Z,10383.359
2022-12-01T11:23:55.183Z,10250.24
2022-12-01T11:24:55.352Z,10178.56
2022-12-01T11:25:55.494Z,10055.68
2022-12-01T11:26:55.640Z,9943.04
2022-12-01T11:27:55.793Z,9845.76
2022-12-01T11:28:55.948Z,9743.359
2022-12-01T11:29:56.102Z,9630.72
2022-12-01T11:30:56.730Z,9543.68
2022-12-01T11:31:56.386Z,9415.68
2022-12-01T11:32:56.504Z,9226.24
2022-12-01T11:33:56.598Z,8995.84
2022-12-01T11:34:56.763Z,8944.64
2022-12-01T11:35:56.909Z,9175.04
2022-12-01T11:36:57.063Z,9425.92
2022-12-01T11:38:28.116Z,9461.76
2022-12-01T11:38:57.335Z,9415.68
2022-12-01T11:39:57.461Z,9175.04
2022-12-01T11:40:57.634Z,9036.8
2022-12-01T11:41:57.767Z,8934.399
2022-12-01T11:42:57.918Z,8847.359
2022-12-01T11:44:01.723Z,8704
2022-12-01T11:44:58.372Z,8611.84
2022-12-01T11:45:58.590Z,8488.96
2022-12-01T11:47:21.406Z,8207.36
2022-12-01T11:47:58.758Z,8007.68
2022-12-01T11:48:58.904Z,7767.04
2022-12-01T11:49:59.011Z,7659.52
2022-12-01T11:50:59.171Z,7633.92
2022-12-01T11:51:59.264Z,7552
2022-12-01T11:52:59.426Z,7511.04
2022-12-01T11:53:59.605Z,7475.2
2022-12-01T11:54:59.727Z,7485.44
2022-12-01T11:55:59.886Z,7649.28
2022-12-01T11:57:25.752Z,7654.4
2022-12-01T12:02:01.896Z,7654.4
2022-12-01T12:03:00.836Z,7403.52
2022-12-01T12:04:00.880Z,7147.52
2022-12-01T12:05:01.012Z,7121.92
2022-12-01T12:06:18.075Z,7198.72
2022-12-01T12:07:01.298Z,7014.4
2022-12-01T12:08:01.487Z,6932.48
2022-12-01T12:09:01.588Z,6830.08
2022-12-01T12:10:01.704Z,6681.6
2022-12-01T12:11:01.935Z,6533.12
2022-12-01T12:12:02.009Z,6384.64
2022-12-01T12:13:02.175Z,6297.6
2022-12-01T12:14:02.291Z,6400
2022-12-01T12:15:02.420Z,6348.8
2022-12-01T12:16:02.557Z,6302.72
2022-12-01T12:17:02.739Z,6318.08
2022-12-01T12:18:02.905Z,6430.72
2022-12-01T12:19:02.979Z,6563.84
2022-12-01T12:20:07.994Z,6681.6
2022-12-01T12:21:03.226Z,6702.08
2022-12-01T12:22:03.370Z,6558.72
2022-12-01T12:23:03.529Z,6620.16
2022-12-01T12:24:03.677Z,6604.8
2022-12-01T12:25:04.039Z,6656
2022-12-01T12:26:03.986Z,6702.08
2022-12-01T12:27:04.123Z,6681.6
2022-12-01T12:28:04.278Z,6620.16
2022-12-01T12:29:07.124Z,6594.56
2022-12-01T12:30:04.614Z,6625.28
2022-12-01T12:31:04.967Z,6568.96
2022-12-01T12:32:04.891Z,6430.72
2022-12-01T12:33:05.033Z,6338.56
2022-12-01T12:34:05.138Z,6302.72
2022-12-01T12:35:05.300Z,6312.96
2022-12-01T12:36:05.438Z,6323.2
2022-12-01T12:37:05.601Z,6338.56
2022-12-01T12:38:05.740Z,6353.92
2022-12-01T12:39:05.903Z,6389.76
2022-12-01T12:40:06.042Z,6430.72
2022-12-01T12:41:06.194Z,6502.4
2022-12-01T12:42:06.348Z,6584.32
2022-12-01T12:43:06.506Z,6599.68
2022-12-01T12:44:06.654Z,6620.16
2022-12-01T12:45:06.807Z,6717.44
2022-12-01T12:46:06.999Z,6727.68
2022-12-01T12:47:07.115Z,6656
2022-12-01T12:48:07.262Z,6574.08
2022-12-01T12:49:20.650Z,6379.52
2022-12-01T12:50:07.460Z,6205.44
2022-12-01T12:51:07.602Z,6031.36
2022-12-01T12:52:08.820Z,5816.32
2022-12-01T12:53:07.874Z,5657.6